sensor_id;sensor_type;location;lat;lon;timestamp;pressure;altitude;pressure_sealevel;temperature;humidity
15477;BME280;7840;42.702;23.296;2023-07-16T00:02:11;95251.47;;;25.04;100.00
15477;BME280;7840;42.702;23.296;2023-07-16T00:04:39;95243.66;;;25.03;100.00
15477;BME280;7840;42.702;23.296;2023-07-16T00:07:06;95253.88;;;25.06;100.00
15477;BME280;7840;42.702;23.296;2023-07-16T00:09:35;95247.78;;;25.09;100.00
15477;BME280;7840;42.702;23.296;2023-07-16T00:12:03;95254.00;;;25.09;100.00
15477;BME280;7840;42.702;23.296;2023-07-16T00:14:32;95249.50;;;25.14;100.00
15477;BME280;7840;42.702;23.296;2023-07-16T00:16:59;95248.56;;;25.09;100.00
15477;BME280;7840;42.702;23.296;2023-07-16T00:19:27;95244.88;;;25.14;100.00
15477;BME280;7840;42.702;23.296;2023-07-16T00:21:54;95240.09;;;25.11;100.00
15477;BME280;7840;42.702;23.296;2023-07-16T00:24:22;95244.06;;;25.14;100.00
15477;BME280;7840;42.702;23.296;2023-07-16T00:26:49;95250.00;;;25.28;100.00
15477;BME280;7840;42.702;23.296;2023-07-16T00:29:17;95248.72;;;25.25;100.00
15477;BME280;7840;42.702;23.296;2023-07-16T00:31:46;95251.56;;;25.29;100.00
15477;BME280;7840;42.702;23.296;2023-07-16T00:34:13;95248.41;;;25.27;100.00
15477;BME280;7840;42.702;23.296;2023-07-16T00:36:41;95248.16;;;25.32;100.00
15477;BME280;7840;42.702;23.296;2023-07-16T00:39:08;95245.91;;;25.22;100.00
15477;BME280;7840;42.702;23.296;2023-07-16T00:41:36;95240.22;;;25.15;100.00
15477;BME280;7840;42.702;23.296;2023-07-16T00:44:04;95237.97;;;25.17;100.00
15477;BME280;7840;42.702;23.296;2023-07-16T00:46:31;95244.31;;;25.21;100.00
15477;BME280;7840;42.702;23.296;2023-07-16T00:49:01;95248.03;;;25.16;100.00
15477;BME280;7840;42.702;23.296;2023-07-16T00:51:29;95250.03;;;25.07;100.00
15477;BME280;7840;42.702;23.296;2023-07-16T00:53:57;95248.72;;;25.13;100.00
15477;BME280;7840;42.702;23.296;2023-07-16T00:56:25;95245.66;;;25.15;100.00
15477;BME280;7840;42.702;23.296;2023-07-16T00:58:52;95250.03;;;25.07;100.00
15477;BME280;7840;42.702;23.296;2023-07-16T01:01:20;95248.97;;;24.99;100.00
15477;BME280;7840;42.702;23.296;2023-07-16T01:03:47;95247.16;;;24.91;100.00
15477;BME280;7840;42.702;23.296;2023-07-16T01:06:20;95247.69;;;24.97;100.00
15477;BME280;7840;42.702;23.296;2023-07-16T01:08:54;95245.13;;;25.00;100.00
15477;BME280;7840;42.702;23.296;2023-07-16T01:11:25;95240.63;;;25.04;100.00
15477;BME280;7840;42.702;23.296;2023-07-16T01:13:54;95246.00;;;24.92;100.00
15477;BME280;7840;42.702;23.296;2023-07-16T01:16:24;95249.13;;;24.82;100.00
15477;BME280;7840;42.702;23.296;2023-07-16T01:18:52;95254.16;;;24.92;100.00
15477;BME280;7840;42.702;23.296;2023-07-16T01:21:23;95252.41;;;24.88;100.00
15477;BME280;7840;42.702;23.296;2023-07-16T01:27:25;95256.38;;;24.90;100.00
15477;BME280;7840;42.702;23.296;2023-07-16T01:30:00;95248.19;;;24.99;100.00
15477;BME280;7840;42.702;23.296;2023-07-16T01:32:29;95246.72;;;25.01;100.00
15477;BME280;7840;42.702;23.296;2023-07-16T01:34:58;95245.09;;;24.88;100.00
15477;BME280;7840;42.702;23.296;2023-07-16T01:37:26;95247.69;;;24.85;100.00
15477;BME280;7840;42.702;23.296;2023-07-16T01:39:54;95244.16;;;24.84;100.00
15477;BME280;7840;42.702;23.296;2023-07-16T01:42:21;95241.78;;;24.82;100.00
15477;BME280;7840;42.702;23.296;2023-07-16T01:44:49;95251.56;;;24.75;100.00
15477;BME280;7840;42.702;23.296;2023-07-16T01:47:23;95256.66;;;24.76;100.00
15477;BME280;7840;42.702;23.296;2023-07-16T01:49:51;95252.69;;;24.74;100.00
15477;BME280;7840;42.702;23.296;2023-07-16T01:52:19;95253.16;;;24.76;100.00
15477;BME280;7840;42.702;23.296;2023-07-16T01:54:46;95253.38;;;24.71;100.00
15477;BME280;7840;42.702;23.296;2023-07-16T01:57:14;95253.63;;;24.78;100.00
15477;BME280;7840;42.702;23.296;2023-07-16T01:59:41;95256.81;;;24.80;100.00
15477;BME280;7840;42.702;23.296;2023-07-16T02:02:09;95262.56;;;24.78;100.00
15477;BME280;7840;42.702;23.296;2023-07-16T02:04:38;95254.03;;;24.68;100.00
15477;BME280;7840;42.702;23.296;2023-07-16T02:07:05;95262.16;;;24.68;100.00
15477;BME280;7840;42.702;23.296;2023-07-16T02:09:34;95259.19;;;24.61;100.00
15477;BME280;7840;42.702;23.296;2023-07-16T02:12:02;95256.03;;;24.59;100.00
15477;BME280;7840;42.702;23.296;2023-07-16T02:14:30;95255.34;;;24.62;100.00
15477;BME280;7840;42.702;23.296;2023-07-16T02:16:57;95255.22;;;24.58;100.00
15477;BME280;7840;42.702;23.296;2023-07-16T02:19:24;95257.06;;;24.45;100.00
15477;BME280;7840;42.702;23.296;2023-07-16T02:21:54;95257.59;;;24.39;100.00
15477;BME280;7840;42.702;23.296;2023-07-16T02:24:21;95255.34;;;24.41;100.00
15477;BME280;7840;42.702;23.296;2023-07-16T02:26:49;95259.94;;;24.19;100.00
15477;BME280;7840;42.702;23.296;2023-07-16T02:29:16;95261.00;;;24.27;100.00
15477;BME280;7840;42.702;23.296;2023-07-16T02:31:44;95264.22;;;24.20;100.00
15477;BME280;7840;42.702;23.296;2023-07-16T02:34:14;95255.03;;;24.13;100.00
15477;BME280;7840;42.702;23.296;2023-07-16T02:36:42;95264.13;;;24.08;100.00
15477;BME280;7840;42.702;23.296;2023-07-16T02:39:10;95258.97;;;24.15;100.00
15477;BME280;7840;42.702;23.296;2023-07-16T02:41:38;95253.63;;;24.07;100.00
15477;BME280;7840;42.702;23.296;2023-07-16T02:44:07;95258.41;;;24.10;100.00
15477;BME280;7840;42.702;23.296;2023-07-16T02:46:35;95260.44;;;24.13;100.00
15477;BME280;7840;42.702;23.296;2023-07-16T02:49:03;95261.34;;;23.96;100.00
15477;BME280;7840;42.702;23.296;2023-07-16T02:51:31;95259.63;;;23.91;100.00
15477;BME280;7840;42.702;23.296;2023-07-16T02:53:58;95262.94;;;23.97;100.00
15477;BME280;7840;42.702;23.296;2023-07-16T02:56:27;95264.91;;;24.09;100.00
15477;BME280;7840;42.702;23.296;2023-07-16T02:58:55;95268.22;;;24.14;100.00
15477;BME280;7840;42.702;23.296;2023-07-16T03:01:23;95272.03;;;23.92;100.00
15477;BME280;7840;42.702;23.296;2023-07-16T03:03:51;95264.88;;;23.88;100.00
15477;BME280;7840;42.702;23.296;2023-07-16T03:06:23;95260.84;;;24.02;100.00
15477;BME280;7840;42.702;23.296;2023-07-16T03:08:50;95268.34;;;23.97;100.00
15477;BME280;7840;42.702;23.296;2023-07-16T03:11:18;95268.56;;;23.83;100.00
15477;BME280;7840;42.702;23.296;2023-07-16T03:13:47;95268.91;;;23.82;100.00
15477;BME280;7840;42.702;23.296;2023-07-16T03:16:14;95266.19;;;23.82;100.00
15477;BME280;7840;42.702;23.296;2023-07-16T03:18:43;95270.91;;;23.93;100.00
15477;BME280;7840;42.702;23.296;2023-07-16T03:21:11;95273.41;;;23.98;100.00
15477;BME280;7840;42.702;23.296;2023-07-16T03:23:39;95272.97;;;23.96;100.00
15477;BME280;7840;42.702;23.296;2023-07-16T03:26:06;95280.13;;;23.92;100.00
15477;BME280;7840;42.702;23.296;2023-07-16T03:28:34;95278.09;;;23.89;100.00
15477;BME280;7840;42.702;23.296;2023-07-16T03:31:03;95275.19;;;23.94;100.00
15477;BME280;7840;42.702;23.296;2023-07-16T03:33:30;95280.59;;;23.94;100.00
15477;BME280;7840;42.702;23.296;2023-07-16T03:35:58;95278.84;;;23.98;100.00
15477;BME280;7840;42.702;23.296;2023-07-16T03:38:25;95286.28;;;24.01;100.00
15477;BME280;7840;42.702;23.296;2023-07-16T03:40:53;95285.50;;;24.01;100.00
15477;BME280;7840;42.702;23.296;2023-07-16T03:43:20;95284.44;;;23.93;100.00
15477;BME280;7840;42.702;23.296;2023-07-16T03:45:48;95287.97;;;23.85;100.00
15477;BME280;7840;42.702;23.296;2023-07-16T03:48:17;95289.09;;;23.84;100.00
15477;BME280;7840;42.702;23.296;2023-07-16T03:50:46;95285.88;;;23.91;100.00
15477;BME280;7840;42.702;23.296;2023-07-16T03:53:13;95283.56;;;23.72;100.00
15477;BME280;7840;42.702;23.296;2023-07-16T03:55:41;95288.97;;;23.72;100.00
15477;BME280;7840;42.702;23.296;2023-07-16T03:58:08;95286.09;;;23.77;100.00
15477;BME280;7840;42.702;23.296;2023-07-16T04:00:36;95294.72;;;23.70;100.00
15477;BME280;7840;42.702;23.296;2023-07-16T04:03:03;95299.03;;;23.63;100.00
15477;BME280;7840;42.702;23.296;2023-07-16T04:05:32;95292.66;;;23.59;100.00
15477;BME280;7840;42.702;23.296;2023-07-16T04:08:00;95296.63;;;23.70;100.00
15477;BME280;7840;42.702;23.296;2023-07-16T04:10:27;95298.97;;;23.80;100.00
15477;BME280;7840;42.702;23.296;2023-07-16T04:12:55;95294.88;;;23.65;100.00
15477;BME280;7840;42.702;23.296;2023-07-16T04:15:22;95299.63;;;23.77;100.00
15477;BME280;7840;42.702;23.296;2023-07-16T04:17:50;95300.31;;;24.04;100.00
15477;BME280;7840;42.702;23.296;2023-07-16T04:20:18;95302.63;;;24.14;100.00
15477;BME280;7840;42.702;23.296;2023-07-16T04:22:46;95301.78;;;24.22;100.00
15477;BME280;7840;42.702;23.296;2023-07-16T04:25:14;95308.53;;;24.16;100.00
15477;BME280;7840;42.702;23.296;2023-07-16T04:27:42;95306.91;;;24.15;100.00
15477;BME280;7840;42.702;23.296;2023-07-16T04:30:11;95310.25;;;24.20;100.00
15477;BME280;7840;42.702;23.296;2023-07-16T04:32:38;95304.88;;;24.41;100.00
15477;BME280;7840;42.702;23.296;2023-07-16T04:35:06;95308.38;;;24.42;100.00
15477;BME280;7840;42.702;23.296;2023-07-16T04:37:34;95309.25;;;24.54;100.00
15477;BME280;7840;42.702;23.296;2023-07-16T04:40:04;95307.00;;;24.56;100.00
15477;BME280;7840;42.702;23.296;2023-07-16T04:42:31;95318.09;;;24.64;100.00
15477;BME280;7840;42.702;23.296;2023-07-16T04:44:59;95324.91;;;24.70;100.00
15477;BME280;7840;42.702;23.296;2023-07-16T04:47:26;95319.97;;;24.72;100.00
15477;BME280;7840;42.702;23.296;2023-07-16T04:49:54;95321.81;;;24.80;100.00
15477;BME280;7840;42.702;23.296;2023-07-16T04:52:21;95322.88;;;24.88;100.00
15477;BME280;7840;42.702;23.296;2023-07-16T04:54:49;95321.91;;;24.92;100.00
15477;BME280;7840;42.702;23.296;2023-07-16T04:57:18;95327.38;;;25.04;100.00
15477;BME280;7840;42.702;23.296;2023-07-16T04:59:45;95322.22;;;25.12;100.00
15477;BME280;7840;42.702;23.296;2023-07-16T05:02:13;95328.56;;;25.16;100.00
15477;BME280;7840;42.702;23.296;2023-07-16T05:04:43;95331.09;;;25.21;100.00
15477;BME280;7840;42.702;23.296;2023-07-16T05:07:13;95329.50;;;25.20;100.00
15477;BME280;7840;42.702;23.296;2023-07-16T05:09:41;95334.25;;;25.23;100.00
15477;BME280;7840;42.702;23.296;2023-07-16T05:12:09;95329.78;;;25.39;100.00
15477;BME280;7840;42.702;23.296;2023-07-16T05:14:46;95328.91;;;25.47;100.00
15477;BME280;7840;42.702;23.296;2023-07-16T05:17:14;95332.31;;;25.56;100.00
15477;BME280;7840;42.702;23.296;2023-07-16T05:19:42;95326.88;;;25.56;100.00
15477;BME280;7840;42.702;23.296;2023-07-16T05:22:10;95329.38;;;25.49;100.00
15477;BME280;7840;42.702;23.296;2023-07-16T05:24:37;95336.41;;;25.62;100.00
15477;BME280;7840;42.702;23.296;2023-07-16T05:27:05;95337.59;;;25.74;100.00
15477;BME280;7840;42.702;23.296;2023-07-16T05:29:33;95332.75;;;25.91;100.00
15477;BME280;7840;42.702;23.296;2023-07-16T05:32:02;95338.31;;;25.95;100.00
15477;BME280;7840;42.702;23.296;2023-07-16T05:34:30;95345.91;;;26.02;100.00
15477;BME280;7840;42.702;23.296;2023-07-16T05:36:57;95342.16;;;26.06;100.00
15477;BME280;7840;42.702;23.296;2023-07-16T05:39:25;95347.16;;;26.16;100.00
15477;BME280;7840;42.702;23.296;2023-07-16T05:41:52;95341.50;;;26.22;100.00
15477;BME280;7840;42.702;23.296;2023-07-16T05:44:20;95339.00;;;26.41;100.00
15477;BME280;7840;42.702;23.296;2023-07-16T05:46:47;95346.00;;;26.54;100.00
15477;BME280;7840;42.702;23.296;2023-07-16T05:49:17;95339.63;;;26.75;100.00
15477;BME280;7840;42.702;23.296;2023-07-16T05:51:44;95346.22;;;26.73;100.00
15477;BME280;7840;42.702;23.296;2023-07-16T05:54:12;95345.75;;;26.84;100.00
15477;BME280;7840;42.702;23.296;2023-07-16T05:56:39;95349.13;;;26.93;100.00
15477;BME280;7840;42.702;23.296;2023-07-16T05:59:07;95348.47;;;26.84;100.00
15477;BME280;7840;42.702;23.296;2023-07-16T06:01:34;95355.03;;;26.83;100.00
15477;BME280;7840;42.702;23.296;2023-07-16T06:04:02;95351.13;;;26.96;100.00
15477;BME280;7840;42.702;23.296;2023-07-16T06:06:31;95352.28;;;26.95;100.00
15477;BME280;7840;42.702;23.296;2023-07-16T06:08:59;95348.91;;;26.86;100.00
15477;BME280;7840;42.702;23.296;2023-07-16T06:11:26;95348.63;;;27.03;100.00
15477;BME280;7840;42.702;23.296;2023-07-16T06:13:54;95354.19;;;27.19;100.00
15477;BME280;7840;42.702;23.296;2023-07-16T06:16:21;95354.81;;;26.76;100.00
15477;BME280;7840;42.702;23.296;2023-07-16T06:18:49;95356.84;;;26.91;100.00
15477;BME280;7840;42.702;23.296;2023-07-16T06:21:16;95362.41;;;27.22;100.00
15477;BME280;7840;42.702;23.296;2023-07-16T06:23:45;95340.97;;;27.33;100.00
15477;BME280;7840;42.702;23.296;2023-07-16T06:26:13;95352.72;;;27.37;100.00
15477;BME280;7840;42.702;23.296;2023-07-16T06:28:40;95342.38;;;27.43;100.00
15477;BME280;7840;42.702;23.296;2023-07-16T06:31:08;95342.88;;;27.61;100.00
15477;BME280;7840;42.702;23.296;2023-07-16T06:33:35;95349.31;;;27.68;100.00
15477;BME280;7840;42.702;23.296;2023-07-16T06:36:03;95349.72;;;27.26;100.00
15477;BME280;7840;42.702;23.296;2023-07-16T06:38:31;95347.66;;;27.51;100.00
15477;BME280;7840;42.702;23.296;2023-07-16T06:41:00;95342.66;;;27.82;100.00
15477;BME280;7840;42.702;23.296;2023-07-16T06:43:28;95341.88;;;27.81;100.00
15477;BME280;7840;42.702;23.296;2023-07-16T06:45:55;95342.50;;;28.06;100.00
15477;BME280;7840;42.702;23.296;2023-07-16T06:48:23;95338.63;;;28.23;100.00
15477;BME280;7840;42.702;23.296;2023-07-16T06:50:50;95337.03;;;28.06;100.00
15477;BME280;7840;42.702;23.296;2023-07-16T06:53:18;95338.91;;;28.33;100.00
15477;BME280;7840;42.702;23.296;2023-07-16T06:55:48;95335.72;;;28.47;100.00
15477;BME280;7840;42.702;23.296;2023-07-16T06:58:16;95339.47;;;28.58;100.00
15477;BME280;7840;42.702;23.296;2023-07-16T07:00:44;95342.16;;;28.74;99.74
15477;BME280;7840;42.702;23.296;2023-07-16T07:03:12;95334.75;;;28.91;99.99
15477;BME280;7840;42.702;23.296;2023-07-16T07:05:41;95335.97;;;28.93;100.00
15477;BME280;7840;42.702;23.296;2023-07-16T07:08:08;95338.63;;;28.89;100.00
15477;BME280;7840;42.702;23.296;2023-07-16T07:10:36;95339.25;;;29.18;99.02
15477;BME280;7840;42.702;23.296;2023-07-16T07:13:10;95338.66;;;29.28;96.56
15477;BME280;7840;42.702;23.296;2023-07-16T07:15:39;95330.97;;;29.34;97.27
15477;BME280;7840;42.702;23.296;2023-07-16T07:18:06;95338.50;;;29.60;93.64
15477;BME280;7840;42.702;23.296;2023-07-16T07:20:34;95334.22;;;29.59;95.83
15477;BME280;7840;42.702;23.296;2023-07-16T07:23:02;95343.31;;;29.89;91.06
15477;BME280;7840;42.702;23.296;2023-07-16T07:25:31;95338.25;;;30.11;90.93
15477;BME280;7840;42.702;23.296;2023-07-16T07:27:59;95339.25;;;30.03;88.40
15477;BME280;7840;42.702;23.296;2023-07-16T07:30:27;95332.59;;;30.23;86.92
15477;BME280;7840;42.702;23.296;2023-07-16T07:32:56;95331.44;;;30.24;87.21
15477;BME280;7840;42.702;23.296;2023-07-16T07:35:23;95337.69;;;30.47;83.05
15477;BME280;7840;42.702;23.296;2023-07-16T07:37:51;95327.41;;;30.14;84.78
15477;BME280;7840;42.702;23.296;2023-07-16T07:40:19;95326.31;;;30.45;83.14
15477;BME280;7840;42.702;23.296;2023-07-16T07:42:47;95333.84;;;30.78;80.69
15477;BME280;7840;42.702;23.296;2023-07-16T07:45:15;95326.75;;;30.47;79.88
15477;BME280;7840;42.702;23.296;2023-07-16T07:47:43;95334.84;;;30.17;84.54
15477;BME280;7840;42.702;23.296;2023-07-16T07:50:12;95330.97;;;30.68;81.74
15477;BME280;7840;42.702;23.296;2023-07-16T07:52:39;95333.66;;;30.94;82.22
15477;BME280;7840;42.702;23.296;2023-07-16T07:55:07;95327.72;;;31.19;76.75
15477;BME280;7840;42.702;23.296;2023-07-16T07:57:36;95320.88;;;31.32;74.57
15477;BME280;7840;42.702;23.296;2023-07-16T08:00:04;95325.31;;;30.57;84.70
15477;BME280;7840;42.702;23.296;2023-07-16T08:02:32;95325.53;;;31.01;82.59
15477;BME280;7840;42.702;23.296;2023-07-16T08:04:59;95319.91;;;31.17;80.38
15477;BME280;7840;42.702;23.296;2023-07-16T08:07:28;95318.03;;;31.58;75.13
15477;BME280;7840;42.702;23.296;2023-07-16T08:09:56;95328.50;;;31.49;73.97
15477;BME280;7840;42.702;23.296;2023-07-16T08:12:23;95311.13;;;31.72;73.51
15477;BME280;7840;42.702;23.296;2023-07-16T08:14:51;95315.34;;;31.99;72.52
15477;BME280;7840;42.702;23.296;2023-07-16T08:17:18;95326.13;;;32.26;68.64
15477;BME280;7840;42.702;23.296;2023-07-16T08:19:46;95320.88;;;32.10;68.94
15477;BME280;7840;42.702;23.296;2023-07-16T08:22:13;95315.44;;;32.13;71.41
15477;BME280;7840;42.702;23.296;2023-07-16T08:24:42;95313.59;;;32.28;70.24
15477;BME280;7840;42.702;23.296;2023-07-16T08:27:10;95318.88;;;32.48;68.06
15477;BME280;7840;42.702;23.296;2023-07-16T08:29:37;95327.72;;;32.82;68.10
15477;BME280;7840;42.702;23.296;2023-07-16T08:32:05;95324.69;;;32.98;64.43
15477;BME280;7840;42.702;23.296;2023-07-16T08:34:33;95322.09;;;33.30;65.11
15477;BME280;7840;42.702;23.296;2023-07-16T08:37:00;95317.91;;;33.64;63.81
15477;BME280;7840;42.702;23.296;2023-07-16T08:39:28;95318.63;;;33.47;61.58
15477;BME280;7840;42.702;23.296;2023-07-16T08:41:57;95317.41;;;33.37;63.41
15477;BME280;7840;42.702;23.296;2023-07-16T08:44:25;95325.50;;;33.02;64.24
15477;BME280;7840;42.702;23.296;2023-07-16T08:46:53;95325.31;;;33.53;63.02
15477;BME280;7840;42.702;23.296;2023-07-16T08:49:23;95312.44;;;33.79;63.78
15477;BME280;7840;42.702;23.296;2023-07-16T08:51:50;95305.41;;;34.20;60.97
15477;BME280;7840;42.702;23.296;2023-07-16T08:54:19;95312.88;;;34.16;62.33
15477;BME280;7840;42.702;23.296;2023-07-16T08:56:48;95316.78;;;34.37;61.03
15477;BME280;7840;42.702;23.296;2023-07-16T08:59:17;95315.63;;;34.48;59.73
15477;BME280;7840;42.702;23.296;2023-07-16T09:01:47;95308.53;;;34.37;60.53
15477;BME280;7840;42.702;23.296;2023-07-16T09:04:15;95313.22;;;34.82;59.15
15477;BME280;7840;42.702;23.296;2023-07-16T09:06:43;95315.16;;;34.86;56.76
15477;BME280;7840;42.702;23.296;2023-07-16T09:09:20;95307.72;;;34.75;57.80
15477;BME280;7840;42.702;23.296;2023-07-16T09:11:48;95310.84;;;34.85;56.93
15477;BME280;7840;42.702;23.296;2023-07-16T09:14:19;95300.59;;;35.03;57.27
15477;BME280;7840;42.702;23.296;2023-07-16T09:16:51;95304.94;;;34.93;55.88
15477;BME280;7840;42.702;23.296;2023-07-16T09:19:19;95301.69;;;35.20;55.62
15477;BME280;7840;42.702;23.296;2023-07-16T09:21:47;95298.75;;;35.66;55.01
15477;BME280;7840;42.702;23.296;2023-07-16T09:24:15;95292.44;;;35.69;53.65
15477;BME280;7840;42.702;23.296;2023-07-16T09:26:49;95298.25;;;34.98;57.42
15477;BME280;7840;42.702;23.296;2023-07-16T09:29:18;95295.91;;;34.78;55.88
15477;BME280;7840;42.702;23.296;2023-07-16T09:31:54;95293.44;;;35.23;55.47
15477;BME280;7840;42.702;23.296;2023-07-16T09:34:22;95293.59;;;34.73;57.15
15477;BME280;7840;42.702;23.296;2023-07-16T09:36:50;95295.19;;;34.10;59.69
15477;BME280;7840;42.702;23.296;2023-07-16T09:39:18;95290.09;;;34.26;60.44
15477;BME280;7840;42.702;23.296;2023-07-16T09:41:46;95296.28;;;35.02;56.76
15477;BME280;7840;42.702;23.296;2023-07-16T09:44:15;95285.03;;;35.55;54.20
15477;BME280;7840;42.702;23.296;2023-07-16T09:46:44;95279.56;;;36.11;53.98
15477;BME280;7840;42.702;23.296;2023-07-16T09:49:13;95285.56;;;36.47;52.39
15477;BME280;7840;42.702;23.296;2023-07-16T09:51:43;95276.78;;;36.56;51.94
15477;BME280;7840;42.702;23.296;2023-07-16T09:54:13;95279.91;;;36.61;50.46
15477;BME280;7840;42.702;23.296;2023-07-16T09:56:45;95275.63;;;36.94;49.97
15477;BME280;7840;42.702;23.296;2023-07-16T09:59:16;95273.91;;;37.08;49.49
15477;BME280;7840;42.702;23.296;2023-07-16T10:01:45;95279.50;;;37.01;49.84
15477;BME280;7840;42.702;23.296;2023-07-16T10:04:15;95271.31;;;37.24;48.37
15477;BME280;7840;42.702;23.296;2023-07-16T10:06:50;95265.44;;;37.53;46.79
15477;BME280;7840;42.702;23.296;2023-07-16T10:09:32;95264.72;;;37.48;48.77
15477;BME280;7840;42.702;23.296;2023-07-16T10:12:11;95260.91;;;37.93;46.36
15477;BME280;7840;42.702;23.296;2023-07-16T10:14:40;95261.69;;;36.26;52.19
15477;BME280;7840;42.702;23.296;2023-07-16T10:17:13;95261.81;;;36.57;50.94
15477;BME280;7840;42.702;23.296;2023-07-16T10:19:54;95260.75;;;37.49;48.60
15477;BME280;7840;42.702;23.296;2023-07-16T10:22:47;95260.44;;;37.98;46.48
15477;BME280;7840;42.702;23.296;2023-07-16T10:25:23;95257.09;;;38.34;45.76
15477;BME280;7840;42.702;23.296;2023-07-16T10:27:52;95250.88;;;37.18;46.73
15477;BME280;7840;42.702;23.296;2023-07-16T10:30:21;95246.81;;;37.26;50.67
15477;BME280;7840;42.702;23.296;2023-07-16T10:32:51;95250.34;;;36.17;50.67
15477;BME280;7840;42.702;23.296;2023-07-16T10:35:19;95249.81;;;36.70;51.08
15477;BME280;7840;42.702;23.296;2023-07-16T10:37:48;95249.78;;;37.42;49.84
15477;BME280;7840;42.702;23.296;2023-07-16T10:40:16;95243.28;;;37.83;45.86
15477;BME280;7840;42.702;23.296;2023-07-16T10:42:44;95247.41;;;38.45;45.99
15477;BME280;7840;42.702;23.296;2023-07-16T10:45:13;95246.09;;;38.30;44.44
15477;BME280;7840;42.702;23.296;2023-07-16T10:47:51;95248.13;;;38.93;44.04
15477;BME280;7840;42.702;23.296;2023-07-16T10:50:20;95243.88;;;39.44;41.28
15477;BME280;7840;42.702;23.296;2023-07-16T10:52:52;95252.63;;;39.62;41.10
15477;BME280;7840;42.702;23.296;2023-07-16T10:55:20;95238.25;;;40.00;39.17
15477;BME280;7840;42.702;23.296;2023-07-16T10:57:48;95239.22;;;39.41;40.26
15477;BME280;7840;42.702;23.296;2023-07-16T11:00:16;95240.03;;;38.58;44.36
15477;BME280;7840;42.702;23.296;2023-07-16T11:02:44;95243.00;;;37.74;43.93
15477;BME280;7840;42.702;23.296;2023-07-16T11:05:13;95233.47;;;36.53;49.76
15477;BME280;7840;42.702;23.296;2023-07-16T11:07:43;95222.19;;;36.74;46.54
15477;BME280;7840;42.702;23.296;2023-07-16T11:10:14;95227.69;;;37.42;46.85
15477;BME280;7840;42.702;23.296;2023-07-16T11:12:42;95230.19;;;36.99;46.71
15477;BME280;7840;42.702;23.296;2023-07-16T11:15:10;95224.38;;;37.78;46.94
15477;BME280;7840;42.702;23.296;2023-07-16T11:17:38;95231.25;;;39.03;41.16
15477;BME280;7840;42.702;23.296;2023-07-16T11:20:08;95220.56;;;39.78;40.73
15477;BME280;7840;42.702;23.296;2023-07-16T11:22:38;95216.75;;;40.20;38.70
15477;BME280;7840;42.702;23.296;2023-07-16T11:25:13;95210.28;;;40.40;38.01
15477;BME280;7840;42.702;23.296;2023-07-16T11:27:41;95216.38;;;40.51;39.76
15477;BME280;7840;42.702;23.296;2023-07-16T11:30:09;95212.59;;;40.87;37.17
15477;BME280;7840;42.702;23.296;2023-07-16T11:32:41;95210.25;;;41.14;37.60
15477;BME280;7840;42.702;23.296;2023-07-16T11:35:16;95205.84;;;39.81;37.31
15477;BME280;7840;42.702;23.296;2023-07-16T11:37:45;95213.44;;;39.93;38.19
15477;BME280;7840;42.702;23.296;2023-07-16T11:40:17;95215.69;;;39.29;39.98
15477;BME280;7840;42.702;23.296;2023-07-16T11:42:46;95209.75;;;38.28;40.38
15477;BME280;7840;42.702;23.296;2023-07-16T11:45:19;95204.44;;;39.20;39.39
15477;BME280;7840;42.702;23.296;2023-07-16T11:47:47;95201.47;;;39.63;37.48
15477;BME280;7840;42.702;23.296;2023-07-16T11:50:14;95204.91;;;39.51;38.90
15477;BME280;7840;42.702;23.296;2023-07-16T11:52:42;95199.53;;;40.42;37.99
15477;BME280;7840;42.702;23.296;2023-07-16T11:55:10;95193.53;;;40.89;35.65
15477;BME280;7840;42.702;23.296;2023-07-16T11:57:38;95193.97;;;41.54;34.11
15477;BME280;7840;42.702;23.296;2023-07-16T12:00:07;95196.53;;;41.74;33.96
15477;BME280;7840;42.702;23.296;2023-07-16T12:02:35;95192.22;;;41.06;33.78
15477;BME280;7840;42.702;23.296;2023-07-16T12:05:02;95192.03;;;41.13;34.45
15477;BME280;7840;42.702;23.296;2023-07-16T12:07:35;95190.69;;;41.31;34.47
15477;BME280;7840;42.702;23.296;2023-07-16T12:10:04;95195.63;;;41.52;32.12
15477;BME280;7840;42.702;23.296;2023-07-16T12:12:32;95196.81;;;42.02;30.76
15477;BME280;7840;42.702;23.296;2023-07-16T12:15:06;95189.22;;;42.28;31.00
15477;BME280;7840;42.702;23.296;2023-07-16T12:17:34;95184.78;;;42.18;30.49
15477;BME280;7840;42.702;23.296;2023-07-16T12:20:02;95187.28;;;42.38;31.20
15477;BME280;7840;42.702;23.296;2023-07-16T12:22:30;95187.88;;;42.20;30.41
15477;BME280;7840;42.702;23.296;2023-07-16T12:24:58;95183.75;;;42.24;29.45
15477;BME280;7840;42.702;23.296;2023-07-16T12:27:25;95180.97;;;42.59;28.95
15477;BME280;7840;42.702;23.296;2023-07-16T12:29:53;95183.69;;;42.94;28.02
15477;BME280;7840;42.702;23.296;2023-07-16T12:32:22;95177.06;;;43.22;27.96
15477;BME280;7840;42.702;23.296;2023-07-16T12:34:49;95182.75;;;43.40;27.59
15477;BME280;7840;42.702;23.296;2023-07-16T12:37:17;95173.38;;;43.25;28.27
15477;BME280;7840;42.702;23.296;2023-07-16T12:39:44;95170.66;;;43.12;27.95
15477;BME280;7840;42.702;23.296;2023-07-16T12:42:12;95175.22;;;41.93;30.55
15477;BME280;7840;42.702;23.296;2023-07-16T12:44:39;95179.81;;;41.49;30.45
15477;BME280;7840;42.702;23.296;2023-07-16T12:47:07;95175.22;;;42.41;29.96
15477;BME280;7840;42.702;23.296;2023-07-16T12:49:37;95162.38;;;43.00;29.08
15477;BME280;7840;42.702;23.296;2023-07-16T12:52:05;95167.78;;;43.25;27.76
15477;BME280;7840;42.702;23.296;2023-07-16T12:54:32;95166.81;;;43.19;28.72
15477;BME280;7840;42.702;23.296;2023-07-16T12:57:00;95159.75;;;43.58;28.65
15477;BME280;7840;42.702;23.296;2023-07-16T12:59:29;95165.25;;;43.89;26.62
15477;BME280;7840;42.702;23.296;2023-07-16T13:01:56;95156.34;;;44.22;26.98
15477;BME280;7840;42.702;23.296;2023-07-16T13:04:24;95161.63;;;40.35;32.49
15477;BME280;7840;42.702;23.296;2023-07-16T13:06:53;95161.44;;;39.97;30.73